createdAt,value
2017-09-15T00:00:22.730Z,5.5
2017-09-15T00:01:25.128Z,5.5
2017-09-15T00:02:27.520Z,5.6
2017-09-15T00:03:30.254Z,5.6
2017-09-15T00:04:32.985Z,5.6
2017-09-15T00:05:35.704Z,5.5
2017-09-15T00:06:38.109Z,5.6
2017-09-15T00:07:40.496Z,5.5
2017-09-15T00:08:42.883Z,5.6
2017-09-15T00:09:45.276Z,5.5
2017-09-15T00:10:47.657Z,5.5
2017-09-15T00:11:50.058Z,5.5
2017-09-15T00:12:52.446Z,5.6
2017-09-15T00:13:54.828Z,5.6
2017-09-15T00:14:57.221Z,5.5
2017-09-15T00:15:59.613Z,5.5
2017-09-15T00:17:02.347Z,5.5
2017-09-15T00:18:04.745Z,5.6
2017-09-15T00:19:07.131Z,5.5
2017-09-15T00:20:09.528Z,5.6
2017-09-15T00:21:11.925Z,5.5
2017-09-15T00:22:14.313Z,5.5
2017-09-15T00:23:16.694Z,5.5
2017-09-15T00:24:19.081Z,5.6
2017-09-15T00:25:21.478Z,5.5
2017-09-15T00:26:23.870Z,5.5
2017-09-15T00:27:26.254Z,5.5
2017-09-15T00:28:28.657Z,5.6
2017-09-15T00:29:31.044Z,5.6
2017-09-15T00:30:34.126Z,5.5
2017-09-15T00:31:36.521Z,5.5
2017-09-15T00:32:38.913Z,5.5
2017-09-15T00:33:41.300Z,5.5
2017-09-15T00:34:43.698Z,5.5
2017-09-15T00:35:46.086Z,5.5
2017-09-15T00:36:48.822Z,5.5
2017-09-15T00:37:51.209Z,5.5
2017-09-15T00:38:53.595Z,5.5
2017-09-15T00:39:56.051Z,5.5
2017-09-15T00:40:58.465Z,5.4
2017-09-15T00:42:01.208Z,5.5
2017-09-15T00:43:03.601Z,5.5
2017-09-15T00:44:05.998Z,5.4
2017-09-15T00:45:08.392Z,5.5
2017-09-15T00:46:10.785Z,5.5
2017-09-15T00:47:13.537Z,5.5
2017-09-15T00:48:15.919Z,5.5
2017-09-15T00:49:18.320Z,5.4
2017-09-15T00:50:20.711Z,5.4
2017-09-15T00:51:23.100Z,5.5
2017-09-15T00:52:25.488Z,5.5
2017-09-15T00:53:27.878Z,5.4
2017-09-15T00:54:30.269Z,5.5
2017-09-15T00:55:32.665Z,5.6
2017-09-15T00:56:35.059Z,5.5
2017-09-15T00:57:37.451Z,5.5
2017-09-15T00:58:39.842Z,5.5
2017-09-15T00:59:42.233Z,5.5
2017-09-15T01:00:44.620Z,5.5
2017-09-15T01:01:47.025Z,5.5
2017-09-15T01:02:49.408Z,5.4
2017-09-15T01:03:51.794Z,5.4
2017-09-15T01:04:54.191Z,5.5
2017-09-15T01:05:56.583Z,5.4
2017-09-15T01:06:58.981Z,5.4
2017-09-15T01:08:01.368Z,5.4
2017-09-15T01:09:03.765Z,5.4
2017-09-15T01:10:06.159Z,5.4
2017-09-15T01:11:08.554Z,5.5
2017-09-15T01:12:10.951Z,5.4
2017-09-15T01:13:13.329Z,5.4
2017-09-15T01:14:15.726Z,5.5
2017-09-15T01:15:18.120Z,5.5
2017-09-15T01:16:20.515Z,5.5
2017-09-15T01:17:22.897Z,5.5
2017-09-15T01:18:25.290Z,5.5
2017-09-15T01:19:27.677Z,5.4
2017-09-15T01:20:30.079Z,5.5
2017-09-15T01:21:32.472Z,5.5
2017-09-15T01:22:34.863Z,5.5
2017-09-15T01:23:37.263Z,5.4
2017-09-15T01:24:40.342Z,5.4
2017-09-15T01:25:43.062Z,5.4
2017-09-15T01:26:45.474Z,5.5
2017-09-15T01:27:47.853Z,5.4
2017-09-15T01:28:50.241Z,5.5
2017-09-15T01:29:52.638Z,5.5
2017-09-15T01:30:55.361Z,5.5
2017-09-15T01:31:57.756Z,5.5
2017-09-15T01:33:00.151Z,5.4
2017-09-15T01:34:02.543Z,5.4
2017-09-15T01:35:04.934Z,5.4
2017-09-15T01:36:07.335Z,5.4
2017-09-15T01:37:09.716Z,5.4
2017-09-15T01:38:12.113Z,5.5
2017-09-15T01:39:14.515Z,5.4
2017-09-15T01:40:16.895Z,5.5
2017-09-15T01:41:19.294Z,5.4
2017-09-15T01:42:21.680Z,5.5
2017-09-15T01:43:24.068Z,5.5
2017-09-15T01:44:26.462Z,5.4
2017-09-15T01:45:28.852Z,5.4
2017-09-15T01:46:31.239Z,5.4
2017-09-15T01:47:33.636Z,5.5
2017-09-15T01:48:36.031Z,5.5
2017-09-15T01:49:38.423Z,5.4
2017-09-15T01:50:40.815Z,5.4
2017-09-15T01:51:43.216Z,5.5
2017-09-15T01:52:45.611Z,5.4
2017-09-15T01:53:47.997Z,5.4
2017-09-15T01:54:50.394Z,5.4
2017-09-15T01:55:52.784Z,5.4
2017-09-15T01:56:55.177Z,5.5
2017-09-15T01:57:57.570Z,5.4
2017-09-15T01:58:59.957Z,5.4
2017-09-15T02:00:02.355Z,5.4
2017-09-15T02:01:05.098Z,5.5
2017-09-15T02:02:07.479Z,5.4
2017-09-15T02:03:09.873Z,5.4
2017-09-15T02:04:12.272Z,5.5
2017-09-15T02:05:14.656Z,5.4
2017-09-15T02:06:17.049Z,5.4
2017-09-15T02:07:19.444Z,5.4
2017-09-15T02:08:21.834Z,5.4
2017-09-15T02:09:24.224Z,5.4
2017-09-15T02:10:26.617Z,5.4
2017-09-15T02:11:29.063Z,5.4
2017-09-15T02:12:31.455Z,5.4
2017-09-15T02:13:33.851Z,5.4
2017-09-15T02:14:36.237Z,5.4
2017-09-15T02:15:38.972Z,5.5
2017-09-15T02:16:41.364Z,5.4
2017-09-15T02:17:44.094Z,5.4
2017-09-15T02:18:46.486Z,5.4
2017-09-15T02:19:48.886Z,5.4
2017-09-15T02:20:51.271Z,5.4
2017-09-15T02:21:53.656Z,5.4
2017-09-15T02:22:56.053Z,5.5
2017-09-15T02:23:58.442Z,5.4
2017-09-15T02:25:00.840Z,5.5
2017-09-15T02:26:03.227Z,5.4
2017-09-15T02:27:05.613Z,5.5
2017-09-15T02:28:08.686Z,5.4
2017-09-15T02:29:11.412Z,5.4
2017-09-15T02:30:13.805Z,5.4
2017-09-15T02:31:16.200Z,5.4
2017-09-15T02:32:18.587Z,5.4
2017-09-15T02:33:20.985Z,5.4
2017-09-15T02:34:23.381Z,5.4
2017-09-15T02:35:26.107Z,5.5
2017-09-15T02:36:28.835Z,5.4
2017-09-15T02:37:31.223Z,5.4
2017-09-15T02:38:33.616Z,5.4
2017-09-15T02:39:36.011Z,5.4
2017-09-15T02:40:38.399Z,5.5
2017-09-15T02:41:40.791Z,5.4
2017-09-15T02:42:43.181Z,5.4
2017-09-15T02:43:45.578Z,5.5
2017-09-15T02:44:47.965Z,5.4
2017-09-15T02:45:50.364Z,5.5
2017-09-15T02:46:52.754Z,5.5
2017-09-15T02:47:55.151Z,5.4
2017-09-15T02:48:57.539Z,5.4
2017-09-15T02:49:59.939Z,5.4
2017-09-15T02:51:02.321Z,5.4
2017-09-15T02:52:04.720Z,5.4
2017-09-15T02:53:07.108Z,5.5
2017-09-15T02:54:09.496Z,5.5
2017-09-15T02:55:11.891Z,5.4
2017-09-15T02:56:14.282Z,5.5
2017-09-15T02:57:16.668Z,5.4
2017-09-15T02:58:19.069Z,5.4
2017-09-15T02:59:21.461Z,5.4
2017-09-15T03:00:23.855Z,5.4
2017-09-15T03:01:26.253Z,5.4
2017-09-15T03:02:28.645Z,5.4
2017-09-15T03:03:31.033Z,5.4
2017-09-15T03:04:33.427Z,5.5
2017-09-15T03:05:35.812Z,5.4
2017-09-15T03:06:38.196Z,5.5
2017-09-15T03:07:40.592Z,5.4
2017-09-15T03:08:43.342Z,5.4
2017-09-15T03:09:45.726Z,5.4
2017-09-15T03:10:48.123Z,5.4
2017-09-15T03:11:50.519Z,5.4
2017-09-15T03:12:52.917Z,5.5
2017-09-15T03:13:55.312Z,5.4
2017-09-15T03:14:57.704Z,5.4
2017-09-15T03:16:00.086Z,5.4
2017-09-15T03:17:02.495Z,5.4
2017-09-15T03:18:04.879Z,5.4
2017-09-15T03:19:07.261Z,5.4
2017-09-15T03:20:09.655Z,5.4
2017-09-15T03:21:12.055Z,5.4
2017-09-15T03:22:14.441Z,5.4
2017-09-15T03:23:16.833Z,5.4
2017-09-15T03:24:19.230Z,5.4
2017-09-15T03:25:21.622Z,5.4
2017-09-15T03:26:24.017Z,5.4
2017-09-15T03:27:26.416Z,5.4
2017-09-15T03:28:28.798Z,5.4
2017-09-15T03:29:31.193Z,5.4
2017-09-15T03:30:33.581Z,5.4
2017-09-15T03:31:35.974Z,5.4
2017-09-15T03:32:38.353Z,5.4
2017-09-15T03:33:40.750Z,5.5
2017-09-15T03:34:43.133Z,5.5
2017-09-15T03:35:45.533Z,5.5
2017-09-15T03:36:47.922Z,5.4
2017-09-15T03:37:50.309Z,5.4
2017-09-15T03:38:52.705Z,5.3
2017-09-15T03:39:55.101Z,5.4
2017-09-15T03:40:57.493Z,5.4
2017-09-15T03:41:59.898Z,5.4
2017-09-15T03:43:02.630Z,5.4
2017-09-15T03:44:05.370Z,5.5
2017-09-15T03:45:07.764Z,5.4
2017-09-15T03:46:10.153Z,5.4
2017-09-15T03:47:12.542Z,5.4
2017-09-15T03:48:14.933Z,5.4
2017-09-15T03:49:17.328Z,5.4
2017-09-15T03:50:19.712Z,5.4
2017-09-15T03:51:22.106Z,5.4
2017-09-15T03:52:24.498Z,5.4
2017-09-15T03:53:26.897Z,5.4
2017-09-15T03:54:29.277Z,5.4
2017-09-15T03:55:31.672Z,5.4
2017-09-15T03:56:34.428Z,5.4
2017-09-15T03:57:36.821Z,5.4
2017-09-15T03:58:39.208Z,5.5
2017-09-15T03:59:41.933Z,5.5
2017-09-15T04:00:44.316Z,5.4
2017-09-15T04:01:47.054Z,5.4
2017-09-15T04:02:49.446Z,5.4
2017-09-15T04:03:51.843Z,5.4
2017-09-15T04:04:54.235Z,5.4
2017-09-15T04:05:56.619Z,5.4
2017-09-15T04:06:59.017Z,5.3
2017-09-15T04:08:01.415Z,5.4
2017-09-15T04:09:03.804Z,5.4
2017-09-15T04:10:06.533Z,5.4
2017-09-15T04:11:08.925Z,5.4
2017-09-15T04:12:11.313Z,5.5
2017-09-15T04:13:13.713Z,5.4
2017-09-15T04:14:16.442Z,5.4
2017-09-15T04:15:18.825Z,5.5
2017-09-15T04:16:21.228Z,5.5
2017-09-15T04:17:23.975Z,5.4
2017-09-15T04:18:26.362Z,5.4
2017-09-15T04:19:29.117Z,5.4
2017-09-15T04:20:31.511Z,5.5
2017-09-15T04:21:33.903Z,5.4
2017-09-15T04:22:36.287Z,5.4
2017-09-15T04:23:38.671Z,5.4
2017-09-15T04:24:41.397Z,5.4
2017-09-15T04:25:43.795Z,5.3
2017-09-15T04:26:46.520Z,5.4
2017-09-15T04:27:48.909Z,5.4
2017-09-15T04:28:51.305Z,5.3
2017-09-15T04:29:53.703Z,5.4
2017-09-15T04:30:56.100Z,5.4
2017-09-15T04:31:58.493Z,5.3
2017-09-15T04:33:00.872Z,5.4
2017-09-15T04:34:03.263Z,5.4
2017-09-15T04:35:05.659Z,5.3
2017-09-15T04:36:08.049Z,5.3
2017-09-15T04:37:10.446Z,5.4
2017-09-15T04:38:13.178Z,5.5
2017-09-15T04:39:15.572Z,5.4
2017-09-15T04:40:17.972Z,5.4
2017-09-15T04:41:20.360Z,5.4
2017-09-15T04:42:22.753Z,5.4
2017-09-15T04:43:25.142Z,5.4
2017-09-15T04:44:27.536Z,5.4
2017-09-15T04:45:29.933Z,5.4
2017-09-15T04:46:32.322Z,5.4
2017-09-15T04:47:34.766Z,5.4
2017-09-15T04:48:37.206Z,5.4
2017-09-15T04:49:39.663Z,5.3
2017-09-15T04:50:42.109Z,5.4
2017-09-15T04:51:44.548Z,5.4
2017-09-15T04:52:47.020Z,5.4
2017-09-15T04:53:49.476Z,5.4
2017-09-15T04:54:52.314Z,5.4
2017-09-15T04:55:55.109Z,5.4
2017-09-15T04:56:57.567Z,5.4
2017-09-15T04:58:00.014Z,5.4
2017-09-15T04:59:02.482Z,5.4
2017-09-15T05:00:04.927Z,5.4
2017-09-15T05:01:07.378Z,5.4
2017-09-15T05:02:10.178Z,5.3
2017-09-15T05:03:12.655Z,5.4
2017-09-15T05:04:15.110Z,5.4
2017-09-15T05:05:17.558Z,5.3
2017-09-15T05:06:20.002Z,5.4
2017-09-15T05:07:22.456Z,5.4
2017-09-15T05:08:24.900Z,5.4
2017-09-15T05:09:27.344Z,5.4
2017-09-15T05:10:29.811Z,5.4
2017-09-15T05:11:32.262Z,5.4
2017-09-15T05:12:34.712Z,5.3
2017-09-15T05:13:37.167Z,5.4
2017-09-15T05:14:39.611Z,5.4
2017-09-15T05:15:42.061Z,5.4
2017-09-15T05:16:44.578Z,5.4
2017-09-15T05:17:47.047Z,5.4
2017-09-15T05:18:49.487Z,5.4
2017-09-15T05:19:51.929Z,5.4
2017-09-15T05:20:54.389Z,5.3
2017-09-15T05:21:56.841Z,5.3
2017-09-15T05:22:59.285Z,5.3
2017-09-15T05:24:01.734Z,5.4
2017-09-15T05:25:04.189Z,5.3
2017-09-15T05:26:06.644Z,5.4
2017-09-15T05:27:09.099Z,5.4
2017-09-15T05:28:11.898Z,5.4
2017-09-15T05:29:14.337Z,5.3
2017-09-15T05:30:16.799Z,5.3
2017-09-15T05:31:19.248Z,5.4
2017-09-15T05:32:21.683Z,5.3
2017-09-15T05:33:24.127Z,5.3
2017-09-15T05:34:26.573Z,5.3
2017-09-15T05:35:29.027Z,5.3
2017-09-15T05:36:31.479Z,5.3
2017-09-15T05:37:33.921Z,5.3
2017-09-15T05:38:36.373Z,5.4
2017-09-15T05:39:38.827Z,5.3
2017-09-15T05:40:41.292Z,5.4
2017-09-15T05:41:43.742Z,5.4
2017-09-15T05:42:46.194Z,5.4
2017-09-15T05:43:48.634Z,5.3
2017-09-15T05:44:51.096Z,5.4
2017-09-15T05:45:53.545Z,5.4
2017-09-15T05:46:55.997Z,5.4
2017-09-15T05:47:58.462Z,5.4
2017-09-15T05:49:00.920Z,5.5
2017-09-15T05:50:03.386Z,5.3
2017-09-15T05:51:05.830Z,5.4
2017-09-15T05:52:08.635Z,5.4
2017-09-15T05:53:11.089Z,5.4
2017-09-15T05:54:13.532Z,5.3
2017-09-15T05:55:15.987Z,5.3
2017-09-15T05:56:18.437Z,5.4
2017-09-15T05:57:20.893Z,5.5
2017-09-15T05:58:23.345Z,5.4
2017-09-15T05:59:25.799Z,5.4
2017-09-15T06:00:28.250Z,5.4
2017-09-15T06:01:30.719Z,5.4
2017-09-15T06:02:33.169Z,5.4
2017-09-15T06:03:35.615Z,5.3
2017-09-15T06:04:38.069Z,5.4
2017-09-15T06:05:40.509Z,5.4
2017-09-15T06:06:42.988Z,5.4
2017-09-15T06:07:45.440Z,5.4
2017-09-15T06:08:47.885Z,5.4
2017-09-15T06:09:51.033Z,5.4
2017-09-15T06:10:53.485Z,5.3
2017-09-15T06:11:55.928Z,5.4
2017-09-15T06:12:58.388Z,5.4
2017-09-15T06:14:00.838Z,5.4
2017-09-15T06:15:03.282Z,5.4
2017-09-15T06:16:05.729Z,5.4
2017-09-15T06:17:08.180Z,5.4
2017-09-15T06:18:10.970Z,5.4
2017-09-15T06:19:13.429Z,5.4
2017-09-15T06:20:15.869Z,5.4
2017-09-15T06:21:18.325Z,5.4
2017-09-15T06:22:20.781Z,5.4
2017-09-15T06:23:23.220Z,5.4
2017-09-15T06:24:25.669Z,5.4
2017-09-15T06:25:28.113Z,5.4
2017-09-15T06:26:30.565Z,5.4
2017-09-15T06:27:33.023Z,5.4
2017-09-15T06:28:35.469Z,5.4
2017-09-15T06:29:37.917Z,5.5
2017-09-15T06:30:40.367Z,5.4
2017-09-15T06:31:42.820Z,5.4
2017-09-15T06:32:45.270Z,5.4
2017-09-15T06:33:47.733Z,5.4
2017-09-15T06:34:50.177Z,5.4
2017-09-15T06:35:52.627Z,5.4
2017-09-15T06:36:55.073Z,5.5
2017-09-15T06:37:57.866Z,5.5
2017-09-15T06:39:00.650Z,5.4
2017-09-15T06:40:03.096Z,5.4
2017-09-15T06:41:05.539Z,5.5
2017-09-15T06:42:08.330Z,5.4
2017-09-15T06:43:10.782Z,5.4
2017-09-15T06:44:13.230Z,5.4
2017-09-15T06:45:15.670Z,5.4
2017-09-15T06:46:18.123Z,5.5
2017-09-15T06:47:20.912Z,5.4
2017-09-15T06:48:23.357Z,5.4
2017-09-15T06:49:25.799Z,5.4
2017-09-15T06:50:28.249Z,5.5
2017-09-15T06:51:30.696Z,5.4
2017-09-15T06:52:33.145Z,5.4
2017-09-15T06:53:35.591Z,5.4
2017-09-15T06:54:38.027Z,5.5
2017-09-15T06:55:40.481Z,5.4
2017-09-15T06:56:42.925Z,5.4
2017-09-15T06:57:45.371Z,5.5
2017-09-15T06:58:47.826Z,5.5
2017-09-15T06:59:50.271Z,5.5
2017-09-15T07:00:52.711Z,5.5
2017-09-15T07:01:55.163Z,5.5
2017-09-15T07:02:57.605Z,5.5
2017-09-15T07:04:00.049Z,5.5
2017-09-15T07:05:02.503Z,5.5
2017-09-15T07:06:04.952Z,5.5
2017-09-15T07:07:07.408Z,5.5
2017-09-15T07:08:09.852Z,5.5
2017-09-15T07:09:12.306Z,5.5
2017-09-15T07:10:14.759Z,5.5
2017-09-15T07:11:17.206Z,5.6
2017-09-15T07:12:19.656Z,5.6
2017-09-15T07:13:22.101Z,5.5
2017-09-15T07:14:24.554Z,5.5
2017-09-15T07:15:26.996Z,5.5
2017-09-15T07:16:29.448Z,5.6
2017-09-15T07:17:31.898Z,5.6
2017-09-15T07:18:34.348Z,5.6
2017-09-15T07:19:36.793Z,5.5
2017-09-15T07:20:39.244Z,5.6
2017-09-15T07:21:41.694Z,5.5
2017-09-15T07:22:44.142Z,5.6
2017-09-15T07:23:46.587Z,5.6
2017-09-15T07:24:49.036Z,5.6
2017-09-15T07:25:51.487Z,5.5
2017-09-15T07:26:53.944Z,5.5
2017-09-15T07:27:56.397Z,5.5
2017-09-15T07:28:58.840Z,5.5
2017-09-15T07:30:01.294Z,5.6
2017-09-15T07:31:04.107Z,5.5
2017-09-15T07:32:06.548Z,5.6
2017-09-15T07:33:08.997Z,5.6
2017-09-15T07:34:11.438Z,5.6
2017-09-15T07:35:13.898Z,5.6
2017-09-15T07:36:16.353Z,5.6
2017-09-15T07:37:19.149Z,5.6
2017-09-15T07:38:21.592Z,5.6
2017-09-15T07:39:24.041Z,5.6
2017-09-15T07:40:26.491Z,5.6
2017-09-15T07:41:28.945Z,5.6
2017-09-15T07:42:31.397Z,5.7
2017-09-15T07:43:34.184Z,5.6
2017-09-15T07:44:36.633Z,5.6
2017-09-15T07:45:39.082Z,5.7
2017-09-15T07:46:41.535Z,5.6
2017-09-15T07:47:43.985Z,5.6
2017-09-15T07:48:46.431Z,5.7
2017-09-15T07:49:48.876Z,5.6
2017-09-15T07:50:51.663Z,5.6
2017-09-15T07:51:54.105Z,5.6
2017-09-15T07:52:56.566Z,5.7
2017-09-15T07:53:59.002Z,5.8
2017-09-15T07:55:01.453Z,5.6
2017-09-15T07:56:03.904Z,5.7
2017-09-15T07:57:06.359Z,5.7
2017-09-15T07:58:08.809Z,5.7
2017-09-15T07:59:11.264Z,5.8
2017-09-15T08:00:13.702Z,5.7
2017-09-15T08:01:16.504Z,5.7
2017-09-15T08:02:18.953Z,5.7
2017-09-15T08:03:21.408Z,5.7
2017-09-15T08:04:23.861Z,5.7
2017-09-15T08:05:26.303Z,5.7
2017-09-15T08:06:28.761Z,5.8
2017-09-15T08:07:31.219Z,5.8
2017-09-15T08:08:33.664Z,5.8
2017-09-15T08:09:36.113Z,5.8
2017-09-15T08:10:38.558Z,5.8
2017-09-15T08:11:41.015Z,5.9
2017-09-15T08:12:43.465Z,5.8
2017-09-15T08:13:45.916Z,5.9
2017-09-15T08:14:48.364Z,5.9
2017-09-15T08:15:50.822Z,5.9
2017-09-15T08:16:53.274Z,5.9
2017-09-15T08:17:55.732Z,5.9
2017-09-15T08:18:58.179Z,5.9
2017-09-15T08:20:00.621Z,5.8
2017-09-15T08:21:03.076Z,5.8
2017-09-15T08:22:05.524Z,5.9
2017-09-15T08:23:07.977Z,5.8
2017-09-15T08:24:10.428Z,5.9
2017-09-15T08:25:12.872Z,5.9
2017-09-15T08:26:15.325Z,5.9
2017-09-15T08:27:17.782Z,5.9
2017-09-15T08:28:20.231Z,5.9
2017-09-15T08:29:22.679Z,5.9
2017-09-15T08:30:25.129Z,6
2017-09-15T08:31:27.938Z,5.9
2017-09-15T08:32:30.393Z,5.9
2017-09-15T08:33:33.178Z,5.9
2017-09-15T08:34:35.623Z,5.9
2017-09-15T08:35:38.089Z,5.9
2017-09-15T08:36:40.536Z,5.9
2017-09-15T08:37:42.985Z,5.9
2017-09-15T08:38:45.447Z,5.9
2017-09-15T08:39:47.896Z,5.9
2017-09-15T08:40:50.352Z,5.9
2017-09-15T08:41:52.805Z,5.9
2017-09-15T08:42:55.244Z,5.9
2017-09-15T08:43:58.063Z,5.9
2017-09-15T08:45:00.519Z,5.9
2017-09-15T08:46:02.971Z,5.9
2017-09-15T08:47:05.764Z,6
2017-09-15T08:48:08.227Z,5.9
2017-09-15T08:49:11.371Z,6
2017-09-15T08:50:13.815Z,6
2017-09-15T08:51:16.270Z,6
2017-09-15T08:52:18.726Z,6
2017-09-15T08:53:21.192Z,6
2017-09-15T08:54:23.646Z,6
2017-09-15T08:55:26.109Z,6
2017-09-15T08:56:28.562Z,6
2017-09-15T08:57:31.029Z,6.1
2017-09-15T08:58:33.472Z,6.1
2017-09-15T08:59:35.925Z,6
2017-09-15T09:00:38.375Z,6.1
2017-09-15T09:01:40.824Z,6.1
2017-09-15T09:02:43.285Z,6.1
2017-09-15T09:03:46.078Z,6.1
2017-09-15T09:04:48.529Z,6.1
2017-09-15T09:05:50.978Z,6.1
2017-09-15T09:06:53.436Z,6.1
2017-09-15T09:07:55.889Z,6.1
2017-09-15T09:08:58.356Z,6.1
2017-09-15T09:10:00.819Z,6.2
2017-09-15T09:11:03.289Z,6.2
2017-09-15T09:12:06.075Z,6.1
2017-09-15T09:13:08.533Z,6.3
2017-09-15T09:14:10.985Z,6.2
2017-09-15T09:15:13.442Z,6.2
2017-09-15T09:16:15.902Z,6.2
2017-09-15T09:17:18.354Z,6.2
2017-09-15T09:18:20.825Z,6.3
2017-09-15T09:19:23.285Z,6.3
2017-09-15T09:20:25.746Z,6.3
2017-09-15T09:21:28.195Z,6.3
2017-09-15T09:22:30.662Z,6.3
2017-09-15T09:23:33.112Z,6.4
2017-09-15T09:24:35.910Z,6.4
2017-09-15T09:25:38.362Z,6.4
2017-09-15T09:26:40.814Z,6.4
2017-09-15T09:27:43.269Z,6.4
2017-09-15T09:28:45.723Z,6.4
2017-09-15T09:29:48.170Z,6.5
2017-09-15T09:30:50.632Z,6.6
2017-09-15T09:31:53.084Z,6.4
2017-09-15T09:32:55.535Z,6.5
2017-09-15T09:33:58.002Z,6.5
2017-09-15T09:35:00.452Z,6.5
2017-09-15T09:36:02.906Z,6.5
2017-09-15T09:37:05.364Z,6.4
2017-09-15T09:38:07.823Z,6.5
2017-09-15T09:39:10.274Z,6.5
2017-09-15T09:40:12.740Z,6.5
2017-09-15T09:41:15.187Z,6.5
2017-09-15T09:42:17.642Z,6.4
2017-09-15T09:43:20.106Z,6.5
2017-09-15T09:44:22.559Z,6.5
2017-09-15T09:45:25.013Z,6.5
2017-09-15T09:46:27.469Z,6.5
2017-09-15T09:47:29.939Z,6.5
2017-09-15T09:48:32.391Z,6.5
2017-09-15T09:49:35.187Z,6.5
2017-09-15T09:50:37.646Z,6.5
2017-09-15T09:51:40.100Z,6.5
2017-09-15T09:52:42.559Z,6.6
2017-09-15T09:53:45.360Z,6.5
2017-09-15T09:54:47.808Z,6.5
2017-09-15T09:55:50.262Z,6.6
2017-09-15T09:56:52.732Z,6.5
2017-09-15T09:57:55.183Z,6.6
2017-09-15T09:58:57.639Z,6.6
2017-09-15T10:00:00.103Z,6.5
2017-09-15T10:01:02.553Z,6.5
2017-09-15T10:02:05.354Z,6.6
2017-09-15T10:03:07.815Z,6.6
2017-09-15T10:04:10.267Z,6.6
2017-09-15T10:05:12.728Z,6.6
2017-09-15T10:06:15.180Z,6.6
2017-09-15T10:07:17.635Z,6.6
2017-09-15T10:08:20.098Z,6.6
2017-09-15T10:09:22.554Z,6.6
2017-09-15T10:10:25.358Z,6.6
2017-09-15T10:11:27.809Z,6.6
2017-09-15T10:12:30.269Z,6.6
2017-09-15T10:13:33.070Z,6.5
2017-09-15T10:14:35.532Z,6.5
2017-09-15T10:15:37.984Z,6.5
2017-09-15T10:16:40.782Z,6.5
2017-09-15T10:17:43.235Z,6.5
2017-09-15T10:18:45.686Z,6.5
2017-09-15T10:19:48.148Z,6.5
2017-09-15T10:20:50.613Z,6.5
2017-09-15T10:21:53.062Z,6.6
2017-09-15T10:22:55.530Z,6.5
2017-09-15T10:23:57.981Z,6.5
2017-09-15T10:25:00.439Z,6.5
2017-09-15T10:26:02.895Z,6.5
2017-09-15T10:27:05.356Z,6.5
2017-09-15T10:28:07.806Z,6.6
2017-09-15T10:29:10.274Z,6.6
2017-09-15T10:30:12.722Z,6.6
2017-09-15T10:31:15.202Z,6.6
2017-09-15T10:32:18.002Z,6.6
2017-09-15T10:33:20.456Z,6.7
2017-09-15T10:34:22.918Z,6.6
2017-09-15T10:35:25.367Z,6.6
2017-09-15T10:36:27.822Z,6.6
2017-09-15T10:37:30.282Z,6.6
2017-09-15T10:38:33.079Z,6.6
2017-09-15T10:39:35.539Z,6.6
2017-09-15T10:40:37.991Z,6.6
2017-09-15T10:41:40.454Z,6.6
2017-09-15T10:42:42.915Z,6.6
2017-09-15T10:43:45.723Z,6.5
2017-09-15T10:44:48.534Z,6.6
2017-09-15T10:45:50.999Z,6.5
2017-09-15T10:46:53.446Z,6.6
2017-09-15T10:47:56.251Z,6.5
2017-09-15T10:48:58.707Z,6.5
2017-09-15T10:50:01.159Z,6.5
2017-09-15T10:51:03.625Z,6.5
2017-09-15T10:52:06.076Z,6.5
2017-09-15T10:53:08.866Z,6.6
2017-09-15T10:54:11.327Z,6.5
2017-09-15T10:55:13.778Z,6.5
2017-09-15T10:56:16.229Z,6.5
2017-09-15T10:57:18.687Z,6.5
2017-09-15T10:58:21.137Z,6.5
2017-09-15T10:59:23.595Z,6.5
2017-09-15T11:00:26.052Z,6.5
2017-09-15T11:01:28.510Z,6.6
2017-09-15T11:02:30.966Z,6.5
2017-09-15T11:03:33.774Z,6.5
2017-09-15T11:04:36.225Z,6.6
2017-09-15T11:05:38.672Z,6.5
2017-09-15T11:06:41.128Z,6.5
2017-09-15T11:07:43.578Z,6.5
2017-09-15T11:08:46.037Z,6.5
2017-09-15T11:09:48.491Z,6.5
2017-09-15T11:10:50.939Z,6.5
2017-09-15T11:11:53.397Z,6.5
2017-09-15T11:12:55.857Z,6.5
2017-09-15T11:13:58.309Z,6.5
2017-09-15T11:15:00.760Z,6.5
2017-09-15T11:16:03.217Z,6.5
2017-09-15T11:17:05.682Z,6.5
2017-09-15T11:18:08.129Z,6.5
2017-09-15T11:19:10.926Z,6.5
2017-09-15T11:20:13.379Z,6.5
2017-09-15T11:21:15.832Z,6.5
2017-09-15T11:22:18.283Z,6.5
2017-09-15T11:23:20.742Z,6.6
2017-09-15T11:24:23.198Z,6.5
2017-09-15T11:25:25.673Z,6.4
2017-09-15T11:26:28.122Z,6.5
2017-09-15T11:27:30.525Z,6.5
2017-09-15T11:28:32.927Z,6.5
2017-09-15T11:29:35.330Z,6.4
2017-09-15T11:30:37.746Z,6.5
2017-09-15T11:31:40.153Z,6.4
2017-09-15T11:32:42.556Z,6.5
2017-09-15T11:33:44.959Z,6.5
2017-09-15T11:34:47.362Z,6.5
2017-09-15T11:35:49.757Z,6.5
2017-09-15T11:36:52.184Z,6.5
2017-09-15T11:37:54.922Z,6.5
2017-09-15T11:38:57.319Z,6.5
2017-09-15T11:39:59.735Z,6.5
2017-09-15T11:41:02.137Z,6.5
2017-09-15T11:42:04.546Z,6.5
2017-09-15T11:43:06.944Z,6.5
2017-09-15T11:44:09.699Z,6.6
2017-09-15T11:45:12.096Z,6.5
2017-09-15T11:46:14.497Z,6.5
2017-09-15T11:47:16.905Z,6.5
2017-09-15T11:48:19.304Z,6.5
2017-09-15T11:49:21.709Z,6.5
2017-09-15T11:50:24.124Z,6.5
2017-09-15T11:51:26.518Z,6.5
2017-09-15T11:52:28.921Z,6.5
2017-09-15T11:53:31.334Z,6.5
2017-09-15T11:54:33.731Z,6.5
2017-09-15T11:55:36.132Z,6.5
2017-09-15T11:56:38.879Z,6.5
2017-09-15T11:57:41.276Z,6.5
2017-09-15T11:58:43.682Z,6.5
2017-09-15T11:59:46.098Z,6.5
2017-09-15T12:00:48.498Z,6.6
2017-09-15T12:01:50.910Z,6.6
2017-09-15T12:02:53.311Z,6.6
2017-09-15T12:03:55.739Z,6.6
2017-09-15T12:04:58.118Z,6.6
2017-09-15T12:06:00.523Z,6.6
2017-09-15T12:07:02.925Z,6.6
2017-09-15T12:08:05.327Z,6.6
2017-09-15T12:09:07.733Z,6.5
2017-09-15T12:10:10.135Z,6.6
2017-09-15T12:11:12.540Z,6.6
2017-09-15T12:12:14.954Z,6.6
2017-09-15T12:13:17.351Z,6.6
2017-09-15T12:14:19.760Z,6.6
2017-09-15T12:15:22.174Z,6.6
2017-09-15T12:16:24.921Z,6.6
2017-09-15T12:17:27.332Z,6.6
2017-09-15T12:18:29.746Z,6.6
2017-09-15T12:19:32.143Z,6.5
2017-09-15T12:20:34.550Z,6.6
2017-09-15T12:21:36.959Z,6.6
2017-09-15T12:22:39.371Z,6.5
2017-09-15T12:23:41.771Z,6.6
2017-09-15T12:24:44.178Z,6.5
2017-09-15T12:25:46.911Z,6.5
2017-09-15T12:26:49.321Z,6.6
2017-09-15T12:27:51.722Z,6.6
2017-09-15T12:28:54.134Z,6.6
2017-09-15T12:29:56.535Z,6.6
2017-09-15T12:30:58.942Z,6.6
2017-09-15T12:32:01.347Z,6.6
2017-09-15T12:33:03.746Z,6.6
2017-09-15T12:34:06.144Z,6.5
2017-09-15T12:35:08.547Z,6.6
2017-09-15T12:36:10.953Z,6.5
2017-09-15T12:37:13.721Z,6.5
2017-09-15T12:38:16.118Z,6.5
2017-09-15T12:39:18.525Z,6.5
2017-09-15T12:40:20.925Z,6.5
2017-09-15T12:41:23.343Z,6.6
2017-09-15T12:42:25.737Z,6.5
2017-09-15T12:43:28.129Z,6.5
2017-09-15T12:44:30.540Z,6.5
2017-09-15T12:45:32.940Z,6.5
2017-09-15T12:46:35.339Z,6.5
2017-09-15T12:47:37.749Z,6.5
2017-09-15T12:48:40.148Z,6.5
2017-09-15T12:49:42.551Z,6.5
2017-09-15T12:50:44.968Z,6.5
2017-09-15T12:51:47.361Z,6.5
2017-09-15T12:52:50.117Z,6.5
2017-09-15T12:53:52.520Z,6.5
2017-09-15T12:54:54.927Z,6.5
2017-09-15T12:55:57.331Z,6.5
2017-09-15T12:57:00.087Z,6.5
2017-09-15T12:58:02.480Z,6.5
2017-09-15T12:59:04.879Z,6.5
2017-09-15T13:00:07.281Z,6.4
2017-09-15T13:01:09.680Z,6.5
2017-09-15T13:02:12.080Z,6.5
2017-09-15T13:03:14.491Z,6.5
2017-09-15T13:04:16.901Z,6.5
2017-09-15T13:05:19.314Z,6.5
2017-09-15T13:06:21.719Z,6.5
2017-09-15T13:07:24.124Z,6.5
2017-09-15T13:08:26.528Z,6.5
2017-09-15T13:09:28.935Z,6.5
2017-09-15T13:10:31.330Z,6.5
2017-09-15T13:11:33.743Z,6.5
2017-09-15T13:12:36.143Z,6.5
2017-09-15T13:13:38.552Z,6.6
2017-09-15T13:14:40.957Z,6.6
2017-09-15T13:15:43.359Z,6.6
2017-09-15T13:16:45.798Z,6.6
2017-09-15T13:17:48.198Z,6.6
2017-09-15T13:18:50.598Z,6.6
2017-09-15T13:19:53.008Z,6.6
2017-09-15T13:20:55.743Z,6.6
2017-09-15T13:21:58.147Z,6.6
2017-09-15T13:23:00.552Z,6.5
2017-09-15T13:24:02.954Z,6.5
2017-09-15T13:25:05.360Z,6.5
2017-09-15T13:26:07.768Z,6.5
2017-09-15T13:27:10.163Z,6.5
2017-09-15T13:28:12.572Z,6.5
2017-09-15T13:29:14.976Z,6.5
2017-09-15T13:30:17.381Z,6.5
2017-09-15T13:31:19.788Z,6.5
2017-09-15T13:32:22.205Z,6.5
2017-09-15T13:33:24.603Z,6.5
2017-09-15T13:34:27.387Z,6.5
2017-09-15T13:35:29.816Z,6.6
2017-09-15T13:36:32.191Z,6.6
2017-09-15T13:37:34.607Z,6.6
2017-09-15T13:38:37.016Z,6.6
2017-09-15T13:39:39.407Z,6.6
2017-09-15T13:40:41.823Z,6.6
2017-09-15T13:41:44.235Z,6.6
2017-09-15T13:42:46.634Z,6.6
2017-09-15T13:43:49.041Z,6.6
2017-09-15T13:44:51.451Z,6.6
2017-09-15T13:45:54.062Z,6.6
2017-09-15T13:46:56.456Z,6.7
2017-09-15T13:47:58.862Z,6.6
2017-09-15T13:49:01.268Z,6.6
2017-09-15T13:50:03.689Z,6.6
2017-09-15T13:51:06.100Z,6.6
2017-09-15T13:52:08.501Z,6.6
2017-09-15T13:53:10.913Z,6.6
2017-09-15T13:54:13.335Z,6.6
2017-09-15T13:55:15.731Z,6.6
2017-09-15T13:56:18.141Z,6.6
2017-09-15T13:57:20.545Z,6.5
2017-09-15T13:58:22.958Z,6.6
2017-09-15T13:59:25.364Z,6.6
2017-09-15T14:00:27.776Z,6.5
2017-09-15T14:01:30.169Z,6.5
2017-09-15T14:02:32.578Z,6.6
2017-09-15T14:03:34.983Z,6.5
2017-09-15T14:04:37.394Z,6.5
2017-09-15T14:05:39.799Z,6.5
2017-09-15T14:06:42.195Z,6.5
2017-09-15T14:07:44.604Z,6.5
2017-09-15T14:08:47.012Z,6.5
2017-09-15T14:09:49.416Z,6.5
2017-09-15T14:10:51.822Z,6.5
2017-09-15T14:11:54.564Z,6.5
2017-09-15T14:12:56.956Z,6.5
2017-09-15T14:13:59.365Z,6.5
2017-09-15T14:15:01.822Z,6.5
2017-09-15T14:16:04.226Z,6.5
2017-09-15T14:17:06.635Z,6.5
2017-09-15T14:18:09.042Z,6.5
2017-09-15T14:19:11.448Z,6.5
2017-09-15T14:20:13.864Z,6.5